aviador You're here:

KMHS Decoded Metar

MOUNT SHASTA in CA, USA
Report Time2017-03-25 16:56:00
UTC Time2017-03-25 17:26:05
Flight Rules vfr VFR
WindCalm
Visibility9999 m
Phenomena:N/A
Clouds:N/A
Expected CloudBase > 800 ft AGL from Temp-Dew spread
CeilingNone
Temp04°C (ISA -4)
Dew Point02°C (87% RH)
AAT2.3°C
QNH1020 hPa
Density Alt2,930 ft
Elevation3,537 ft
Report Wrong Elevation
Raw Report
KMHS 251656Z AUTO 00000KT 10SM CLR 04/02 A3012=

Extra information for KMHS:More info

Metar Taf Metar & Taf Last 4 Metars F.Rules Stats Wind Profile Meteogram Temp Stats Airport Information Weather charts Add Link Nearby VenuesMetar ALERT Operation Metar Decoded Social comments

AIRNAV info for KMHS